Time;durP1;ratioP1;P1;durP2;ratioP2;P2;SDS_P1;SDS_P2;PMS_P1;PMS_P2;Temp;Humidity;BMP_temperature;BMP_pressure;BME280_temperature;BME280_humidity;BME280_pressure;Samples;Min_cycle;Max_cycle;Signal;HPM_P1;HPM_P2
2023/11/25 00:00:57;;;;;;;4.07;2.08;;;;;;;;;;6280107;22;20187;-77
2023/11/25 00:03:25;;;;;;;2.38;2.17;;;;;;;;;;6279708;22;20272;-77
2023/11/25 00:05:54;;;;;;;2.50;1.58;;;;;;;;;;6280086;22;20728;-78
2023/11/25 00:08:21;;;;;;;4.88;2.80;;;;;;;;;;6280311;22;20207;-79
2023/11/25 00:10:49;;;;;;;4.30;3.05;;;;;;;;;;6279736;22;20439;-79
2023/11/25 00:13:17;;;;;;;6.68;2.63;;;;;;;;;;6279948;22;20211;-78
2023/11/25 00:15:45;;;;;;;5.25;2.35;;;;;;;;;;6281416;22;20191;-78
2023/11/25 00:18:12;;;;;;;3.00;2.15;;;;;;;;;;6279730;22;20231;-78
2023/11/25 00:20:40;;;;;;;5.47;2.65;;;;;;;;;;6279892;22;20561;-78
2023/11/25 00:23:08;;;;;;;2.00;1.77;;;;;;;;;;6280545;22;20191;-78
2023/11/25 00:25:36;;;;;;;4.78;1.88;;;;;;;;;;6280413;22;20235;-78
2023/11/25 00:28:05;;;;;;;6.22;2.70;;;;;;;;;;6279442;22;20244;-77
2023/11/25 00:30:33;;;;;;;3.70;1.92;;;;;;;;;;6280323;22;20176;-78
2023/11/25 00:33:03;;;;;;;4.13;2.10;;;;;;;;;;6280769;22;20565;-77
2023/11/25 00:35:31;;;;;;;3.85;2.47;;;;;;;;;;6280162;22;20157;-78
2023/11/25 00:37:59;;;;;;;4.15;1.73;;;;;;;;;;6280280;22;20192;-78
2023/11/25 00:40:28;;;;;;;3.33;2.53;;;;;;;;;;6280933;22;20176;-78
2023/11/25 00:42:56;;;;;;;1.92;1.83;;;;;;;;;;6279087;22;20508;-76
2023/11/25 00:45:26;;;;;;;3.72;2.30;;;;;;;;;;6278709;22;20192;-78
2023/11/25 00:47:56;;;;;;;3.15;1.40;;;;;;;;;;6279718;22;20249;-76
2023/11/25 00:50:24;;;;;;;4.00;1.77;;;;;;;;;;6279385;22;20406;-78
2023/11/25 00:52:52;;;;;;;5.10;2.35;;;;;;;;;;6279274;22;20622;-77
2023/11/25 00:55:20;;;;;;;4.22;2.03;;;;;;;;;;6278155;22;20179;-78
2023/11/25 00:57:49;;;;;;;3.47;1.77;;;;;;;;;;6278862;22;20193;-78
2023/11/25 01:00:22;;;;;;;4.00;1.88;;;;;;;;;;6278370;22;20700;-78
2023/11/25 01:02:50;;;;;;;3.70;1.60;;;;;;;;;;6279209;22;20404;-78
2023/11/25 01:05:17;;;;;;;6.38;2.65;;;;;;;;;;6278570;22;20196;-77
2023/11/25 01:07:45;;;;;;;6.20;1.92;;;;;;;;;;6278709;22;20604;-77
2023/11/25 01:10:12;;;;;;;4.30;1.90;;;;;;;;;;6277707;22;20635;-79
2023/11/25 01:12:40;;;;;;;9.07;1.88;;;;;;;;;;6278147;22;20198;-78
2023/11/25 01:15:12;;;;;;;5.00;2.58;;;;;;;;;;6279648;22;20223;-79
2023/11/25 01:17:40;;;;;;;3.10;2.28;;;;;;;;;;6280681;22;20192;-78
2023/11/25 01:20:10;;;;;;;2.30;1.77;;;;;;;;;;6279106;22;20180;-78
2023/11/25 01:22:38;;;;;;;4.53;2.08;;;;;;;;;;6279789;22;20188;-78
2023/11/25 01:25:07;;;;;;;3.83;2.10;;;;;;;;;;6279242;22;20202;-78
2023/11/25 01:27:35;;;;;;;6.07;2.30;;;;;;;;;;6279404;22;20200;-77
2023/11/25 01:30:05;;;;;;;4.20;2.75;;;;;;;;;;6278571;22;20669;-78
2023/11/25 01:32:34;;;;;;;3.95;2.00;;;;;;;;;;6279353;22;20263;-76
2023/11/25 01:35:02;;;;;;;6.13;1.80;;;;;;;;;;6278900;22;20234;-78
2023/11/25 01:37:30;;;;;;;4.72;2.30;;;;;;;;;;6279145;22;20279;-77
2023/11/25 01:39:58;;;;;;;6.60;2.80;;;;;;;;;;6278802;22;20291;-77
2023/11/25 01:42:25;;;;;;;8.32;2.53;;;;;;;;;;6278790;22;20172;-78
2023/11/25 01:44:53;;;;;;;3.33;2.15;;;;;;;;;;6278685;22;20203;-78
2023/11/25 01:47:20;;;;;;;3.20;1.88;;;;;;;;;;6277742;22;20178;-77
2023/11/25 01:49:50;;;;;;;3.60;1.85;;;;;;;;;;6277402;22;20183;-78
2023/11/25 01:52:18;;;;;;;6.05;2.22;;;;;;;;;;6278720;22;20676;-77
2023/11/25 01:54:45;;;;;;;4.60;2.08;;;;;;;;;;6279388;22;20190;-78
2023/11/25 01:57:14;;;;;;;4.30;1.75;;;;;;;;;;6278529;22;20679;-76
2023/11/25 01:59:41;;;;;;;3.40;2.00;;;;;;;;;;6277294;22;20178;-77
2023/11/25 02:02:10;;;;;;;3.70;2.05;;;;;;;;;;6278031;22;20233;-77
2023/11/25 02:04:37;;;;;;;3.70;1.88;;;;;;;;;;6277866;22;20629;-78
2023/11/25 02:07:06;;;;;;;6.85;2.75;;;;;;;;;;6278242;22;20529;-77
2023/11/25 02:09:34;;;;;;;6.80;2.08;;;;;;;;;;6277940;22;20223;-78
2023/11/25 02:12:02;;;;;;;8.15;1.98;;;;;;;;;;6277556;22;20521;-78
2023/11/25 02:14:30;;;;;;;4.03;1.90;;;;;;;;;;6279952;22;20519;-78
2023/11/25 02:16:58;;;;;;;3.75;1.92;;;;;;;;;;6278316;22;20214;-77
2023/11/25 02:19:26;;;;;;;3.05;1.88;;;;;;;;;;6277977;22;20287;-78
2023/11/25 02:21:55;;;;;;;2.78;2.00;;;;;;;;;;6277390;22;20211;-78
2023/11/25 02:24:26;;;;;;;5.05;2.55;;;;;;;;;;6279883;22;20657;-78
2023/11/25 02:26:59;;;;;;;5.18;3.00;;;;;;;;;;6279232;22;20231;-77
2023/11/25 02:29:27;;;;;;;4.38;1.90;;;;;;;;;;6278088;22;20200;-77
2023/11/25 02:31:54;;;;;;;2.95;2.33;;;;;;;;;;6278199;22;20200;-78
2023/11/25 02:34:22;;;;;;;5.53;1.92;;;;;;;;;;6277614;22;20195;-78
2023/11/25 02:36:49;;;;;;;3.55;1.90;;;;;;;;;;6277754;22;20174;-77
2023/11/25 02:39:18;;;;;;;4.60;2.20;;;;;;;;;;6277111;22;20251;-78
2023/11/25 02:41:49;;;;;;;2.83;2.22;;;;;;;;;;6277814;22;20687;-76
2023/11/25 02:44:17;;;;;;;6.97;2.80;;;;;;;;;;6277821;22;20175;-77
2023/11/25 02:46:45;;;;;;;5.10;2.45;;;;;;;;;;6277211;22;20210;-77
2023/11/25 02:49:13;;;;;;;2.33;2.03;;;;;;;;;;6276607;22;20200;-78
2023/11/25 02:51:47;;;;;;;3.28;2.35;;;;;;;;;;6276536;22;20178;-77
2023/11/25 02:54:14;;;;;;;3.72;2.35;;;;;;;;;;6278678;22;20235;-78
2023/11/25 02:56:42;;;;;;;3.30;2.30;;;;;;;;;;6276912;22;20640;-78
2023/11/25 02:59:12;;;;;;;3.97;2.25;;;;;;;;;;6276440;22;20204;-77
2023/11/25 03:01:47;;;;;;;4.03;2.10;;;;;;;;;;6277661;22;20586;-78
2023/11/25 03:04:16;;;;;;;3.65;2.30;;;;;;;;;;6278299;22;20548;-78
2023/11/25 03:06:43;;;;;;;3.20;2.60;;;;;;;;;;6277404;22;20203;-78
2023/11/25 03:09:11;;;;;;;2.95;2.35;;;;;;;;;;6277977;22;20199;-78
2023/11/25 03:11:39;;;;;;;3.15;2.03;;;;;;;;;;6277427;22;20203;-78
2023/11/25 03:14:06;;;;;;;4.68;2.50;;;;;;;;;;6278570;22;20570;-77
2023/11/25 03:16:35;;;;;;;4.40;3.05;;;;;;;;;;6278870;22;20650;-78
2023/11/25 03:19:02;;;;;;;4.57;2.63;;;;;;;;;;6279407;22;20239;-78
2023/11/25 03:21:30;;;;;;;3.22;2.13;;;;;;;;;;6278908;22;20223;-77
2023/11/25 03:23:59;;;;;;;4.35;2.40;;;;;;;;;;6278403;22;20951;-77
2023/11/25 03:26:28;;;;;;;2.65;2.08;;;;;;;;;;6278600;22;20200;-78
2023/11/25 03:28:55;;;;;;;3.47;2.60;;;;;;;;;;6278031;22;20605;-78
2023/11/25 03:31:23;;;;;;;4.85;2.28;;;;;;;;;;6277615;22;20621;-78
2023/11/25 03:33:52;;;;;;;6.50;2.65;;;;;;;;;;6278721;22;20172;-78
2023/11/25 03:36:19;;;;;;;5.50;2.40;;;;;;;;;;6278296;22;20255;-78
2023/11/25 03:38:47;;;;;;;2.72;2.28;;;;;;;;;;6278897;22;20275;-78
2023/11/25 03:41:14;;;;;;;4.22;2.30;;;;;;;;;;6277923;22;20200;-77
2023/11/25 03:43:42;;;;;;;8.50;2.55;;;;;;;;;;6278793;22;20188;-78
2023/11/25 03:46:10;;;;;;;5.88;3.78;;;;;;;;;;6277762;22;20280;-77
2023/11/25 03:48:37;;;;;;;2.40;2.20;;;;;;;;;;6278251;22;20196;-77
2023/11/25 03:51:06;;;;;;;4.10;3.70;;;;;;;;;;6279201;22;20177;-78
2023/11/25 03:53:34;;;;;;;3.70;2.10;;;;;;;;;;6279175;22;20172;-78
2023/11/25 03:56:01;;;;;;;4.30;1.92;;;;;;;;;;6278847;22;20263;-78
2023/11/25 03:58:29;;;;;;;5.00;2.22;;;;;;;;;;6278233;22;20203;-79
2023/11/25 04:00:56;;;;;;;5.10;2.20;;;;;;;;;;6279412;22;20251;-78
2023/11/25 04:03:25;;;;;;;2.50;2.25;;;;;;;;;;6280397;22;20259;-78
2023/11/25 04:05:52;;;;;;;3.03;1.88;;;;;;;;;;6280729;22;20176;-78
2023/11/25 04:08:23;;;;;;;2.78;1.90;;;;;;;;;;6281349;22;20204;-78
2023/11/25 04:10:52;;;;;;;4.43;2.67;;;;;;;;;;6281592;22;20157;-77
2023/11/25 04:13:19;;;;;;;4.78;2.00;;;;;;;;;;6278849;22;20176;-78
2023/11/25 04:15:46;;;;;;;2.30;1.80;;;;;;;;;;6278815;22;20230;-78
2023/11/25 04:18:14;;;;;;;3.28;1.92;;;;;;;;;;6278349;22;20188;-78
2023/11/25 04:20:41;;;;;;;3.20;1.80;;;;;;;;;;6279575;22;20251;-77
2023/11/25 04:23:09;;;;;;;4.28;2.63;;;;;;;;;;6278846;22;20223;-77
2023/11/25 04:25:38;;;;;;;3.80;1.67;;;;;;;;;;6279564;22;20180;-78
2023/11/25 04:28:06;;;;;;;5.43;2.90;;;;;;;;;;6279037;22;20200;-77
2023/11/25 04:30:34;;;;;;;4.85;1.98;;;;;;;;;;6279234;22;20177;-76
2023/11/25 04:33:01;;;;;;;4.57;2.60;;;;;;;;;;6279346;22;20183;-78
2023/11/25 04:35:29;;;;;;;3.97;2.05;;;;;;;;;;6279812;22;20238;-79
2023/11/25 04:37:56;;;;;;;7.90;1.90;;;;;;;;;;6278821;22;20271;-78
2023/11/25 04:40:24;;;;;;;3.70;1.80;;;;;;;;;;6279346;22;20241;-78
2023/11/25 04:42:53;;;;;;;6.90;2.10;;;;;;;;;;6279351;22;20518;-78
2023/11/25 04:45:20;;;;;;;5.45;2.47;;;;;;;;;;6279118;22;20260;-78
2023/11/25 04:47:50;;;;;;;2.95;1.92;;;;;;;;;;6278688;22;20205;-78
2023/11/25 04:50:20;;;;;;;3.28;1.60;;;;;;;;;;6279527;22;20165;-78
2023/11/25 04:52:47;;;;;;;1.10;1.10;;;;;;;;;;6278498;22;20254;-78
2023/11/25 04:55:15;;;;;;;4.75;1.80;;;;;;;;;;6275836;22;20594;-78
2023/11/25 04:57:43;;;;;;;1.75;1.65;;;;;;;;;;6279314;22;20188;-78
2023/11/25 05:00:16;;;;;;;1.88;1.65;;;;;;;;;;6279527;22;20179;-78
2023/11/25 05:02:44;;;;;;;2.88;1.77;;;;;;;;;;6279572;22;20212;-78
2023/11/25 05:05:12;;;;;;;3.00;1.85;;;;;;;;;;6279013;22;20806;-78
2023/11/25 05:07:40;;;;;;;1.58;1.48;;;;;;;;;;6278675;22;20254;-77
2023/11/25 05:10:09;;;;;;;2.88;1.85;;;;;;;;;;6278660;22;20179;-78
2023/11/25 05:12:37;;;;;;;3.58;1.60;;;;;;;;;;6278243;22;20176;-78
2023/11/25 05:15:07;;;;;;;4.40;2.72;;;;;;;;;;6278992;22;20181;-78
2023/11/25 05:17:35;;;;;;;6.72;2.38;;;;;;;;;;6278651;22;20192;-78
2023/11/25 05:20:04;;;;;;;2.33;1.45;;;;;;;;;;6278902;22;20200;-78
2023/11/25 05:22:32;;;;;;;2.28;1.52;;;;;;;;;;6278809;22;20184;-77
2023/11/25 05:25:00;;;;;;;4.35;2.45;;;;;;;;;;6278452;22;20233;-78
2023/11/25 05:27:28;;;;;;;4.45;2.38;;;;;;;;;;6278752;22;20197;-79
2023/11/25 05:29:56;;;;;;;1.85;1.67;;;;;;;;;;6278882;22;20180;-78
2023/11/25 05:32:23;;;;;;;2.33;1.88;;;;;;;;;;6279467;22;20183;-78
2023/11/25 05:34:52;;;;;;;3.35;1.73;;;;;;;;;;6278889;22;20179;-77
2023/11/25 05:37:20;;;;;;;3.20;2.40;;;;;;;;;;6279942;22;20252;-78
2023/11/25 05:39:50;;;;;;;3.03;1.70;;;;;;;;;;6279081;22;20173;-78
2023/11/25 05:42:23;;;;;;;2.58;1.73;;;;;;;;;;6279805;22;20156;-79
2023/11/25 05:44:51;;;;;;;1.95;1.75;;;;;;;;;;6279583;22;20163;-77
2023/11/25 05:47:19;;;;;;;3.67;1.85;;;;;;;;;;6280645;22;20200;-78
2023/11/25 05:49:47;;;;;;;3.50;1.75;;;;;;;;;;6278936;22;20176;-77
2023/11/25 05:52:16;;;;;;;2.45;2.05;;;;;;;;;;6279345;22;20183;-77
2023/11/25 05:54:43;;;;;;;4.43;2.58;;;;;;;;;;6279901;22;20176;-78
2023/11/25 05:57:11;;;;;;;4.15;1.92;;;;;;;;;;6279128;22;20176;-79
2023/11/25 05:59:38;;;;;;;2.33;1.90;;;;;;;;;;6279026;22;20212;-77
2023/11/25 06:02:06;;;;;;;2.97;1.88;;;;;;;;;;6279563;22;20681;-78
2023/11/25 06:04:33;;;;;;;5.10;1.77;;;;;;;;;;6279680;22;20256;-79
2023/11/25 06:07:00;;;;;;;2.63;1.90;;;;;;;;;;6279346;22;20176;-78
2023/11/25 06:09:31;;;;;;;3.97;2.30;;;;;;;;;;6278549;22;20196;-79
2023/11/25 06:11:58;;;;;;;5.50;2.05;;;;;;;;;;6278987;22;20161;-79
2023/11/25 06:14:26;;;;;;;5.65;2.22;;;;;;;;;;6278842;22;20203;-79
2023/11/25 06:16:56;;;;;;;4.28;2.50;;;;;;;;;;6278764;22;20180;-79
2023/11/25 06:19:26;;;;;;;5.68;2.90;;;;;;;;;;6278702;22;20203;-78
2023/11/25 06:21:54;;;;;;;4.20;2.42;;;;;;;;;;6279826;22;20172;-78
2023/11/25 06:24:22;;;;;;;5.55;2.75;;;;;;;;;;6278169;22;20184;-78
2023/11/25 06:26:50;;;;;;;4.70;2.30;;;;;;;;;;6278828;22;20264;-79
2023/11/25 06:29:18;;;;;;;5.65;2.83;;;;;;;;;;6278550;22;20249;-78
2023/11/25 06:31:46;;;;;;;2.55;1.95;;;;;;;;;;6278316;22;20247;-78
2023/11/25 06:34:14;;;;;;;3.35;2.25;;;;;;;;;;6278792;22;20223;-79
2023/11/25 06:36:44;;;;;;;4.05;3.00;;;;;;;;;;6279842;22;20173;-79
2023/11/25 06:39:14;;;;;;;6.50;2.55;;;;;;;;;;6278821;22;20192;-79
2023/11/25 06:41:43;;;;;;;3.45;1.80;;;;;;;;;;6278768;22;20196;-78
2023/11/25 06:44:12;;;;;;;6.05;3.00;;;;;;;;;;6279147;22;20179;-78
2023/11/25 06:46:40;;;;;;;5.50;2.15;;;;;;;;;;6278970;22;20255;-79
2023/11/25 06:49:08;;;;;;;6.03;2.45;;;;;;;;;;6278356;22;20602;-79
2023/11/25 06:51:35;;;;;;;5.28;2.50;;;;;;;;;;6278196;22;20173;-76
2023/11/25 06:54:03;;;;;;;3.08;1.90;;;;;;;;;;6279018;22;20215;-78
2023/11/25 06:56:30;;;;;;;6.63;2.88;;;;;;;;;;6278753;22;20176;-78
2023/11/25 06:58:58;;;;;;;5.57;2.33;;;;;;;;;;6278488;22;20195;-78
2023/11/25 07:01:26;;;;;;;4.10;3.10;;;;;;;;;;6278183;22;20255;-78
2023/11/25 07:03:54;;;;;;;6.10;2.33;;;;;;;;;;6277480;22;20204;-78
2023/11/25 07:06:21;;;;;;;7.57;2.95;;;;;;;;;;6278694;22;20251;-77
2023/11/25 07:08:49;;;;;;;10.63;5.10;;;;;;;;;;6277990;22;20479;-78
2023/11/25 07:11:18;;;;;;;9.75;4.80;;;;;;;;;;6278347;22;20259;-77
2023/11/25 07:13:45;;;;;;;8.27;3.90;;;;;;;;;;6279543;22;20176;-78
2023/11/25 07:16:12;;;;;;;7.93;4.28;;;;;;;;;;6278888;22;20645;-77
2023/11/25 07:18:42;;;;;;;6.25;2.88;;;;;;;;;;6278125;22;20263;-78
2023/11/25 07:21:12;;;;;;;6.78;2.28;;;;;;;;;;6279332;22;20574;-78
2023/11/25 07:23:39;;;;;;;2.85;1.83;;;;;;;;;;6279488;22;20209;-77
2023/11/25 07:26:10;;;;;;;7.85;2.33;;;;;;;;;;6279547;22;20177;-78
2023/11/25 07:28:37;;;;;;;6.43;2.42;;;;;;;;;;6278632;22;20207;-78
2023/11/25 07:31:05;;;;;;;5.97;2.55;;;;;;;;;;6278021;22;20573;-79
2023/11/25 07:33:32;;;;;;;8.20;2.35;;;;;;;;;;6277890;22;20248;-78
2023/11/25 07:36:01;;;;;;;5.15;2.42;;;;;;;;;;6279938;22;20207;-78
2023/11/25 07:38:29;;;;;;;3.10;1.92;;;;;;;;;;6280065;22;20243;-79
2023/11/25 07:40:56;;;;;;;4.70;2.30;;;;;;;;;;6280553;22;20173;-78
2023/11/25 07:43:24;;;;;;;5.95;2.30;;;;;;;;;;6280553;22;20216;-78
2023/11/25 07:45:52;;;;;;;3.88;2.22;;;;;;;;;;6280244;22;20487;-78
2023/11/25 07:48:20;;;;;;;4.78;2.25;;;;;;;;;;6280937;22;20200;-78
2023/11/25 07:50:47;;;;;;;6.43;2.70;;;;;;;;;;6280715;22;20173;-78
2023/11/25 07:53:16;;;;;;;5.65;2.35;;;;;;;;;;6280501;22;20563;-76
2023/11/25 07:55:44;;;;;;;7.82;3.00;;;;;;;;;;6281594;22;20532;-79
2023/11/25 07:58:11;;;;;;;9.60;3.58;;;;;;;;;;6280862;22;20196;-78
2023/11/25 08:00:39;;;;;;;12.25;3.53;;;;;;;;;;6280203;22;20681;-78
2023/11/25 08:03:06;;;;;;;6.00;2.70;;;;;;;;;;6279448;22;20259;-79
2023/11/25 08:05:34;;;;;;;5.78;2.30;;;;;;;;;;6281817;22;20637;-78
2023/11/25 08:08:03;;;;;;;6.20;2.55;;;;;;;;;;6281240;22;20200;-78
2023/11/25 08:10:34;;;;;;;8.38;3.28;;;;;;;;;;6281105;22;20200;-77
2023/11/25 08:13:01;;;;;;;15.05;3.67;;;;;;;;;;6281100;22;20165;-77
2023/11/25 08:15:29;;;;;;;7.38;3.13;;;;;;;;;;6280796;22;20255;-78
2023/11/25 08:17:58;;;;;;;2.40;2.20;;;;;;;;;;6280120;22;20196;-78
2023/11/25 08:20:25;;;;;;;3.83;2.40;;;;;;;;;;6279868;22;20191;-78
2023/11/25 08:22:53;;;;;;;6.25;2.72;;;;;;;;;;6280574;22;20263;-76
2023/11/25 08:25:20;;;;;;;5.90;2.60;;;;;;;;;;6278559;22;20255;-77
2023/11/25 08:27:52;;;;;;;5.95;2.50;;;;;;;;;;6278482;22;20223;-77
2023/11/25 08:30:20;;;;;;;4.82;3.15;;;;;;;;;;6279823;22;20176;-77
2023/11/25 08:32:48;;;;;;;4.03;2.72;;;;;;;;;;6279821;22;20177;-78
2023/11/25 08:35:15;;;;;;;10.23;2.60;;;;;;;;;;6279539;22;20176;-78
2023/11/25 08:37:43;;;;;;;3.00;2.00;;;;;;;;;;6278980;22;20604;-78
2023/11/25 08:40:16;;;;;;;5.18;2.72;;;;;;;;;;6279993;22;20180;-79
2023/11/25 08:42:44;;;;;;;5.10;2.30;;;;;;;;;;6279634;22;20157;-79
2023/11/25 08:45:14;;;;;;;7.25;2.80;;;;;;;;;;6279868;22;20191;-79
2023/11/25 08:47:42;;;;;;;5.20;2.70;;;;;;;;;;6278920;22;20230;-78
2023/11/25 08:50:14;;;;;;;8.52;2.17;;;;;;;;;;6279521;22;20282;-78
2023/11/25 08:52:41;;;;;;;5.75;1.98;;;;;;;;;;6279966;22;20218;-78
2023/11/25 08:55:10;;;;;;;4.30;2.50;;;;;;;;;;6279511;22;20259;-79
2023/11/25 08:57:38;;;;;;;3.25;2.20;;;;;;;;;;6279404;22;20196;-78
2023/11/25 09:00:14;;;;;;;2.55;1.80;;;;;;;;;;6279135;22;20192;-78
2023/11/25 09:02:44;;;;;;;5.47;2.92;;;;;;;;;;6279749;22;20164;-79
2023/11/25 09:05:14;;;;;;;3.90;2.45;;;;;;;;;;6279060;22;20179;-77
2023/11/25 09:07:43;;;;;;;3.65;2.22;;;;;;;;;;6280040;22;20193;-77
2023/11/25 09:10:11;;;;;;;4.18;2.58;;;;;;;;;;6278133;22;20223;-78
2023/11/25 09:12:39;;;;;;;7.72;2.30;;;;;;;;;;6279545;22;20187;-77
2023/11/25 09:15:08;;;;;;;3.28;2.22;;;;;;;;;;6279111;22;20701;-78
2023/11/25 09:17:38;;;;;;;5.68;2.30;;;;;;;;;;6278274;22;20224;-78
2023/11/25 09:20:11;;;;;;;2.35;1.80;;;;;;;;;;6278259;22;20172;-78
2023/11/25 09:22:39;;;;;;;3.53;1.73;;;;;;;;;;6278997;22;20188;-77
2023/11/25 09:25:10;;;;;;;1.75;1.63;;;;;;;;;;6278382;22;20196;-78
2023/11/25 09:27:38;;;;;;;2.97;1.40;;;;;;;;;;6279548;22;20192;-78
2023/11/25 09:30:10;;;;;;;1.85;1.60;;;;;;;;;;6278785;22;20192;-78
2023/11/25 09:32:39;;;;;;;2.40;1.15;;;;;;;;;;6279720;22;20160;-79
2023/11/25 09:35:10;;;;;;;2.55;1.63;;;;;;;;;;6278798;22;20203;-79
2023/11/25 09:37:38;;;;;;;0.98;0.98;;;;;;;;;;6280283;22;20192;-78
2023/11/25 09:40:13;;;;;;;1.40;1.00;;;;;;;;;;6279056;22;20169;-78
2023/11/25 09:42:42;;;;;;;1.10;1.00;;;;;;;;;;6279803;22;20303;-78
2023/11/25 09:45:10;;;;;;;1.17;1.13;;;;;;;;;;6279193;22;20199;-77
2023/11/25 09:47:38;;;;;;;1.30;1.20;;;;;;;;;;6278842;22;20514;-78
2023/11/25 09:50:10;;;;;;;1.50;1.02;;;;;;;;;;6279356;22;20676;-78
2023/11/25 09:52:49;;;;;;;1.70;1.60;;;;;;;;;;6278324;22;20157;-78
2023/11/25 09:55:18;;;;;;;1.70;1.60;;;;;;;;;;6279340;22;20210;-77
2023/11/25 09:57:47;;;;;;;1.20;1.10;;;;;;;;;;6278539;22;20199;-77
2023/11/25 10:00:17;;;;;;;1.95;1.38;;;;;;;;;;6278784;22;20516;-78
2023/11/25 10:02:45;;;;;;;3.35;1.15;;;;;;;;;;6279385;22;20558;-78
2023/11/25 10:05:14;;;;;;;1.00;1.00;;;;;;;;;;6278995;22;20256;-78
2023/11/25 10:07:42;;;;;;;3.00;1.45;;;;;;;;;;6278819;22;20204;-79
2023/11/25 10:10:10;;;;;;;1.55;1.45;;;;;;;;;;6278024;22;20193;-78
2023/11/25 10:12:41;;;;;;;3.33;2.33;;;;;;;;;;6278257;22;20203;-79
2023/11/25 10:15:10;;;;;;;4.43;2.88;;;;;;;;;;6278795;22;20177;-78
2023/11/25 10:17:38;;;;;;;2.83;2.00;;;;;;;;;;6278051;22;20200;-78
2023/11/25 10:20:09;;;;;;;6.38;1.63;;;;;;;;;;6279402;22;20487;-78
2023/11/25 10:22:47;;;;;;;3.03;1.85;;;;;;;;;;6277948;22;20184;-77
2023/11/25 10:25:17;;;;;;;5.00;3.78;;;;;;;;;;6278974;22;20240;-79
2023/11/25 10:27:45;;;;;;;2.22;1.98;;;;;;;;;;6277049;22;20196;-77
2023/11/25 10:30:15;;;;;;;3.38;1.65;;;;;;;;;;6276158;22;20576;-78
2023/11/25 10:32:42;;;;;;;3.67;1.63;;;;;;;;;;6276494;22;20176;-77
2023/11/25 10:35:11;;;;;;;4.28;2.00;;;;;;;;;;6278053;22;20549;-78
2023/11/25 10:37:39;;;;;;;3.05;2.22;;;;;;;;;;6279596;22;20258;-78
2023/11/25 10:40:11;;;;;;;2.88;1.75;;;;;;;;;;6279122;22;20172;-77
2023/11/25 10:42:43;;;;;;;5.53;1.58;;;;;;;;;;6278850;22;20243;-77
2023/11/25 10:45:16;;;;;;;5.80;1.70;;;;;;;;;;6280067;22;20160;-78
2023/11/25 10:47:44;;;;;;;2.42;1.70;;;;;;;;;;6278893;22;20196;-77
2023/11/25 10:50:13;;;;;;;3.60;1.80;;;;;;;;;;6278216;22;20180;-77
2023/11/25 10:52:43;;;;;;;3.63;2.00;;;;;;;;;;6279566;22;20230;-77
2023/11/25 10:55:11;;;;;;;5.30;1.88;;;;;;;;;;6278601;22;20224;-78
2023/11/25 10:57:40;;;;;;;2.00;1.75;;;;;;;;;;6278371;22;20267;-77
2023/11/25 11:00:11;;;;;;;2.90;1.75;;;;;;;;;;6277915;22;20206;-78
2023/11/25 11:02:46;;;;;;;5.47;2.42;;;;;;;;;;6278384;22;20196;-78
2023/11/25 11:05:19;;;;;;;3.22;1.90;;;;;;;;;;6278674;22;20208;-77
2023/11/25 11:07:50;;;;;;;2.17;1.60;;;;;;;;;;6279303;22;20192;-79
2023/11/25 11:10:25;;;;;;;2.22;1.63;;;;;;;;;;6280267;22;20259;-78
2023/11/25 11:13:00;;;;;;;3.40;2.53;;;;;;;;;;6281550;22;20268;-77
2023/11/25 11:15:30;;;;;;;6.75;2.72;;;;;;;;;;6280720;22;20160;-78
2023/11/25 11:18:06;;;;;;;2.05;1.90;;;;;;;;;;6281420;22;20538;-77
2023/11/25 11:20:37;;;;;;;2.53;1.80;;;;;;;;;;6282065;22;20187;-79
2023/11/25 11:23:06;;;;;;;4.10;2.22;;;;;;;;;;6280942;22;20216;-78
2023/11/25 11:25:40;;;;;;;2.17;1.67;;;;;;;;;;6281344;22;20251;-78
2023/11/25 11:28:14;;;;;;;2.80;1.98;;;;;;;;;;6280518;22;20192;-76
2023/11/25 11:30:49;;;;;;;1.95;1.30;;;;;;;;;;6281890;22;20196;-78
2023/11/25 11:33:17;;;;;;;1.58;1.38;;;;;;;;;;6280535;22;20160;-77
2023/11/25 11:35:44;;;;;;;1.65;1.30;;;;;;;;;;6282390;22;20264;-78
2023/11/25 11:38:26;;;;;;;1.60;1.40;;;;;;;;;;6281183;22;20263;-77
2023/11/25 11:40:56;;;;;;;1.48;1.38;;;;;;;;;;6280842;22;20175;-78
2023/11/25 11:43:24;;;;;;;1.88;1.38;;;;;;;;;;6280914;22;20240;-78
2023/11/25 11:45:52;;;;;;;3.90;1.58;;;;;;;;;;6280704;22;20693;-77
2023/11/25 11:48:21;;;;;;;1.88;1.10;;;;;;;;;;6280067;22;20227;-77
2023/11/25 11:50:51;;;;;;;1.70;1.60;;;;;;;;;;6281101;22;20252;-78
2023/11/25 11:53:19;;;;;;;2.38;1.50;;;;;;;;;;6281705;22;20173;-77
2023/11/25 11:55:55;;;;;;;2.15;1.55;;;;;;;;;;6281303;22;20177;-79
2023/11/25 11:58:23;;;;;;;1.15;1.10;;;;;;;;;;6280019;22;20196;-79
2023/11/25 12:00:55;;;;;;;2.63;1.48;;;;;;;;;;6281179;22;20497;-78
2023/11/25 12:03:23;;;;;;;1.20;1.10;;;;;;;;;;6280518;22;20157;-78
2023/11/25 12:05:51;;;;;;;3.70;3.33;;;;;;;;;;6280545;22;20232;-78
2023/11/25 12:08:19;;;;;;;2.30;1.63;;;;;;;;;;6280270;22;20668;-79
2023/11/25 12:10:47;;;;;;;2.55;1.98;;;;;;;;;;6280687;22;20227;-78
2023/11/25 12:13:26;;;;;;;1.75;1.65;;;;;;;;;;6279984;22;20552;-78
2023/11/25 12:15:54;;;;;;;1.08;1.08;;;;;;;;;;6280313;22;20237;-79
2023/11/25 12:18:23;;;;;;;1.98;1.20;;;;;;;;;;6280042;22;20688;-79
2023/11/25 12:20:50;;;;;;;1.33;1.10;;;;;;;;;;6280025;22;20196;-77
2023/11/25 12:23:18;;;;;;;1.00;1.00;;;;;;;;;;6280148;22;20255;-78
2023/11/25 12:25:46;;;;;;;1.40;1.30;;;;;;;;;;6280156;22;20263;-78
2023/11/25 12:28:16;;;;;;;1.58;1.48;;;;;;;;;;6280751;22;20203;-78
2023/11/25 12:30:44;;;;;;;2.22;1.83;;;;;;;;;;6280210;22;20255;-78
2023/11/25 12:33:11;;;;;;;1.95;1.30;;;;;;;;;;6280155;22;20271;-79
2023/11/25 12:35:43;;;;;;;1.35;1.10;;;;;;;;;;6280235;22;20255;-77
2023/11/25 12:38:11;;;;;;;1.42;1.27;;;;;;;;;;6279922;22;20585;-77
2023/11/25 12:40:39;;;;;;;1.70;1.50;;;;;;;;;;6280053;22;20497;-78
2023/11/25 12:43:10;;;;;;;1.35;1.20;;;;;;;;;;6279422;22;20232;-78
2023/11/25 12:45:40;;;;;;;3.72;1.75;;;;;;;;;;6280263;22;20184;-78
2023/11/25 12:48:11;;;;;;;2.13;1.20;;;;;;;;;;6279832;22;20197;-78
2023/11/25 12:51:01;;;;;;;1.77;1.67;;;;;;;;;;6280040;22;20156;-77
2023/11/25 12:53:28;;;;;;;1.48;1.38;;;;;;;;;;6279688;22;20219;-78
2023/11/25 12:55:57;;;;;;;1.98;1.70;;;;;;;;;;6279934;22;20659;-78
2023/11/25 12:58:25;;;;;;;1.58;1.40;;;;;;;;;;6279998;22;20220;-78
2023/11/25 13:00:56;;;;;;;2.45;1.60;;;;;;;;;;6279674;22;20549;-78
2023/11/25 13:03:25;;;;;;;1.55;1.35;;;;;;;;;;6279861;22;20153;-78
2023/11/25 13:05:59;;;;;;;1.08;1.00;;;;;;;;;;6280496;22;20180;-78
2023/11/25 13:08:28;;;;;;;1.63;1.33;;;;;;;;;;6279862;22;20703;-79
2023/11/25 13:10:58;;;;;;;1.85;0.90;;;;;;;;;;6280094;22;20166;-78
2023/11/25 13:13:26;;;;;;;2.55;1.17;;;;;;;;;;6279027;22;20196;-78
2023/11/25 13:15:56;;;;;;;2.70;0.90;;;;;;;;;;6279724;22;20177;-79
2023/11/25 13:18:24;;;;;;;0.90;0.90;;;;;;;;;;6280128;22;20198;-79
2023/11/25 13:20:52;;;;;;;1.35;1.20;;;;;;;;;;6280006;22;20200;-78
2023/11/25 13:23:20;;;;;;;1.10;0.80;;;;;;;;;;6278088;22;20198;-77
2023/11/25 13:25:48;;;;;;;2.30;1.02;;;;;;;;;;6279708;22;20641;-78
2023/11/25 13:28:16;;;;;;;0.68;0.68;;;;;;;;;;6279031;22;20192;-78
2023/11/25 13:30:44;;;;;;;0.75;0.75;;;;;;;;;;6279901;22;20176;-77
2023/11/25 13:33:15;;;;;;;1.20;1.08;;;;;;;;;;6278420;22;20199;-78
2023/11/25 13:35:43;;;;;;;0.80;0.80;;;;;;;;;;6279744;22;20161;-78
2023/11/25 13:38:12;;;;;;;0.80;0.80;;;;;;;;;;6279739;22;20585;-78
2023/11/25 13:40:40;;;;;;;1.60;1.20;;;;;;;;;;6279369;22;20175;-78
2023/11/25 13:43:09;;;;;;;1.80;1.70;;;;;;;;;;6279841;22;20185;-79
2023/11/25 13:45:37;;;;;;;0.68;0.68;;;;;;;;;;6279980;22;20183;-79
2023/11/25 13:48:05;;;;;;;1.30;0.93;;;;;;;;;;6279125;22;20196;-78
2023/11/25 13:50:34;;;;;;;1.23;0.90;;;;;;;;;;6279227;22;20255;-79
2023/11/25 13:53:04;;;;;;;1.13;1.02;;;;;;;;;;6278771;22;20256;-79
2023/11/25 13:55:36;;;;;;;1.30;0.90;;;;;;;;;;6279560;22;20621;-77
2023/11/25 13:58:05;;;;;;;2.40;2.20;;;;;;;;;;6279381;22;20222;-78
2023/11/25 14:00:34;;;;;;;2.15;1.10;;;;;;;;;;6279689;22;20571;-77
2023/11/25 14:03:01;;;;;;;1.02;0.75;;;;;;;;;;6280275;22;20217;-79
2023/11/25 14:05:30;;;;;;;0.90;0.90;;;;;;;;;;6278602;22;20232;-78
2023/11/25 14:07:58;;;;;;;1.75;1.25;;;;;;;;;;6279123;22;20511;-77
2023/11/25 14:10:26;;;;;;;1.23;1.13;;;;;;;;;;6279531;22;20204;-77
2023/11/25 14:12:54;;;;;;;2.33;1.13;;;;;;;;;;6279231;22;20203;-76
2023/11/25 14:15:21;;;;;;;1.35;1.10;;;;;;;;;;6278740;22;20232;-78
2023/11/25 14:17:49;;;;;;;1.85;1.08;;;;;;;;;;6279091;22;20271;-78
2023/11/25 14:20:17;;;;;;;1.45;1.15;;;;;;;;;;6279554;22;20250;-78
2023/11/25 14:22:46;;;;;;;2.08;1.35;;;;;;;;;;6278844;22;20234;-78
2023/11/25 14:25:16;;;;;;;1.63;1.15;;;;;;;;;;6279178;22;20196;-79
2023/11/25 14:27:44;;;;;;;1.48;1.35;;;;;;;;;;6279104;22;20282;-78
2023/11/25 14:30:17;;;;;;;1.55;1.25;;;;;;;;;;6279151;22;20230;-78
2023/11/25 14:32:46;;;;;;;2.42;1.58;;;;;;;;;;6278501;22;20212;-79
2023/11/25 14:35:14;;;;;;;4.03;1.83;;;;;;;;;;6279758;22;20172;-78
2023/11/25 14:37:43;;;;;;;4.03;1.70;;;;;;;;;;6278884;22;20192;-79
2023/11/25 14:40:14;;;;;;;4.53;2.10;;;;;;;;;;6279507;22;20184;-78
2023/11/25 14:42:42;;;;;;;3.92;2.13;;;;;;;;;;6279750;22;20161;-78
2023/11/25 14:45:10;;;;;;;2.10;1.67;;;;;;;;;;6279361;22;20664;-79
2023/11/25 14:47:38;;;;;;;1.73;1.17;;;;;;;;;;6279445;22;20413;-78
2023/11/25 14:50:08;;;;;;;3.17;1.52;;;;;;;;;;6278825;22;20172;-79
2023/11/25 14:52:35;;;;;;;4.00;1.95;;;;;;;;;;6279381;22;20255;-79